Time;durP1;ratioP1;P1;durP2;ratioP2;P2;SDS_P1;SDS_P2;PMS_P1;PMS_P2;Temp;Humidity;BMP_temperature;BMP_pressure;BME280_temperature;BME280_humidity;BME280_pressure;Samples;Min_cycle;Max_cycle;Signal;HPM_P1;HPM_P2
2021/04/24 00:01:54;;;;;;;3.20;2.10;;;11.50;66.50;;;;;;5023903;28;20455;-72
2021/04/24 00:04:20;;;;;;;2.90;2.50;;;11.40;66.30;;;;;;5030817;28;20590;-71
2021/04/24 00:06:46;;;;;;;5.70;2.93;;;11.40;66.30;;;;;;5031394;28;20479;-71
2021/04/24 00:09:11;;;;;;;6.70;3.40;;;11.30;65.60;;;;;;5007554;28;20226;-71
2021/04/24 00:11:38;;;;;;;4.50;3.13;;;11.30;66.10;;;;;;5037046;28;20216;-71
2021/04/24 00:14:04;;;;;;;5.63;2.80;;;11.30;66.70;;;;;;5020643;28;20212;-73
2021/04/24 00:16:30;;;;;;;4.47;3.40;;;11.30;66.70;;;;;;5015264;28;20993;-71
2021/04/24 00:18:56;;;;;;;6.13;3.90;;;11.20;66.80;;;;;;5048217;28;20461;-71
2021/04/24 00:21:21;;;;;;;5.10;3.37;;;11.20;66.90;;;;;;5030294;28;20212;-72
2021/04/24 00:23:47;;;;;;;3.37;2.83;;;11.10;66.90;;;;;;5028483;28;20216;-71
2021/04/24 00:26:13;;;;;;;5.30;3.23;;;11.10;66.70;;;;;;5028813;28;20226;-71
2021/04/24 00:28:39;;;;;;;6.23;3.90;;;11.00;66.50;;;;;;5014969;28;20224;-71
2021/04/24 00:31:05;;;;;;;4.10;3.43;;;11.00;66.60;;;;;;5048528;28;20234;-71
2021/04/24 00:33:30;;;;;;;4.90;3.30;;;11.00;66.50;;;;;;5022349;28;20239;-72
2021/04/24 00:35:57;;;;;;;5.97;3.30;;;11.00;66.20;;;;;;5021148;28;20228;-71
2021/04/24 00:38:23;;;;;;;3.23;2.50;;;10.90;66.60;;;;;;5015187;28;20302;-70
2021/04/24 00:40:49;;;;;;;10.93;3.67;;;10.90;67.00;;;;;;5014948;28;20593;-71
2021/04/24 00:43:18;;;;;;;4.40;3.00;;;10.90;66.70;;;;;;5037584;28;20257;-71
2021/04/24 00:45:44;;;;;;;4.37;3.00;;;10.80;67.40;;;;;;5051773;28;20215;-71
2021/04/24 00:48:10;;;;;;;4.93;4.10;;;10.80;67.10;;;;;;5024405;28;20990;-72
2021/04/24 00:50:37;;;;;;;5.03;2.70;;;10.70;66.90;;;;;;5047873;28;20280;-72
2021/04/24 00:53:05;;;;;;;7.00;3.50;;;10.70;67.10;;;;;;5012522;28;20455;-71
2021/04/24 00:55:31;;;;;;;5.63;4.10;;;10.70;67.10;;;;;;5030875;28;20447;-71
2021/04/24 00:57:58;;;;;;;6.07;3.77;;;10.70;67.10;;;;;;5048621;28;20454;-71
2021/04/24 01:00:24;;;;;;;4.53;4.13;;;10.60;66.80;;;;;;5011266;28;20597;-71
2021/04/24 01:02:51;;;;;;;5.60;4.03;;;10.60;67.20;;;;;;5032132;28;20462;-71
2021/04/24 01:05:23;;;;;;;8.07;3.33;;;10.60;67.20;;;;;;5014546;28;20949;-72
2021/04/24 01:07:48;;;;;;;4.43;3.60;;;10.60;67.20;;;;;;5015114;28;20459;-71
2021/04/24 01:10:15;;;;;;;6.73;3.20;;;10.60;67.20;;;;;;5031031;28;20519;-69
2021/04/24 01:12:42;;;;;;;3.57;3.10;;;10.60;67.20;;;;;;5015666;28;20215;-71
2021/04/24 01:15:10;;;;;;;4.40;3.30;;;10.50;67.10;;;;;;5047517;28;20596;-71
2021/04/24 01:17:35;;;;;;;4.83;2.90;;;10.50;67.30;;;;;;5045364;28;20450;-71
2021/04/24 01:20:03;;;;;;;5.07;3.50;;;10.50;67.80;;;;;;5015018;28;20454;-71
2021/04/24 01:22:29;;;;;;;6.00;3.77;;;10.40;67.70;;;;;;5031400;28;20305;-71
2021/04/24 01:24:54;;;;;;;4.47;3.60;;;10.40;67.80;;;;;;5030814;28;20910;-71
2021/04/24 01:27:20;;;;;;;3.63;3.07;;;10.30;67.30;;;;;;5027554;28;20220;-69
2021/04/24 01:29:46;;;;;;;4.23;3.00;;;10.30;67.40;;;;;;5023109;28;20273;-71
2021/04/24 01:32:11;;;;;;;3.80;3.00;;;10.30;67.20;;;;;;5042511;28;20270;-72
2021/04/24 01:34:37;;;;;;;8.40;3.47;;;10.30;67.50;;;;;;5016404;28;20244;-71
2021/04/24 01:37:04;;;;;;;5.47;3.90;;;10.20;67.60;;;;;;5036817;28;20303;-71
2021/04/24 01:39:31;;;;;;;4.03;3.03;;;10.20;67.90;;;;;;5027857;28;20216;-70
2021/04/24 01:41:57;;;;;;;5.23;3.30;;;10.10;67.70;;;;;;5014352;28;20517;-70
2021/04/24 01:44:23;;;;;;;6.20;3.40;;;10.10;67.40;;;;;;5026980;28;20450;-71
2021/04/24 01:46:50;;;;;;;5.43;3.50;;;10.10;67.30;;;;;;5048055;28;20653;-71
2021/04/24 01:49:16;;;;;;;3.80;3.10;;;10.10;67.50;;;;;;5045424;28;21043;-71
2021/04/24 01:51:42;;;;;;;3.30;2.73;;;10.00;67.60;;;;;;5032316;28;20455;-72
2021/04/24 01:54:08;;;;;;;4.37;2.93;;;10.00;67.70;;;;;;5050987;28;20262;-71
2021/04/24 01:56:46;;;;;;;3.87;2.90;;;10.00;68.00;;;;;;5050553;28;20449;-70
2021/04/24 01:59:14;;;;;;;4.40;2.70;;;9.90;69.40;;;;;;5050641;28;20464;-71
2021/04/24 02:01:41;;;;;;;5.20;3.90;;;9.90;69.30;;;;;;5034013;28;20446;-71
2021/04/24 02:04:06;;;;;;;5.37;3.30;;;9.80;69.50;;;;;;5016319;28;20443;-71
2021/04/24 02:06:32;;;;;;;9.10;3.40;;;9.80;69.50;;;;;;5032373;28;20457;-71
2021/04/24 02:08:58;;;;;;;6.90;3.17;;;9.70;69.70;;;;;;5050969;28;20294;-69
2021/04/24 02:11:24;;;;;;;4.43;3.40;;;9.70;69.80;;;;;;5049937;28;20534;-71
2021/04/24 02:13:51;;;;;;;10.07;4.00;;;9.70;69.90;;;;;;5028568;28;20235;-71
2021/04/24 02:16:17;;;;;;;7.07;2.73;;;9.70;69.80;;;;;;5042077;28;20216;-71
2021/04/24 02:18:43;;;;;;;5.33;3.63;;;9.70;69.90;;;;;;5020796;28;20489;-71
2021/04/24 02:21:08;;;;;;;5.10;3.20;;;9.60;69.80;;;;;;5034809;28;20469;-71
2021/04/24 02:23:37;;;;;;;4.67;3.60;;;9.50;70.00;;;;;;5050802;28;20240;-71
2021/04/24 02:26:04;;;;;;;4.27;3.27;;;9.50;70.20;;;;;;5018350;28;20216;-71
2021/04/24 02:28:30;;;;;;;4.30;3.27;;;9.30;70.30;;;;;;5028900;28;20460;-71
2021/04/24 02:30:56;;;;;;;3.77;2.70;;;9.30;70.80;;;;;;5035265;28;20538;-71
2021/04/24 02:33:22;;;;;;;3.40;3.00;;;9.30;70.80;;;;;;5050510;28;20226;-71
2021/04/24 02:35:55;;;;;;;7.90;3.47;;;9.40;70.80;;;;;;5026541;28;20549;-70
2021/04/24 02:38:23;;;;;;;3.07;2.60;;;9.40;70.60;;;;;;5033026;28;20224;-71
2021/04/24 02:40:50;;;;;;;4.27;2.63;;;9.40;71.20;;;;;;5050363;28;20472;-70
2021/04/24 02:43:17;;;;;;;3.87;2.93;;;9.40;71.00;;;;;;5033101;28;20496;-70
2021/04/24 02:45:44;;;;;;;4.40;3.47;;;9.40;70.60;;;;;;5016002;28;20455;-71
2021/04/24 02:48:10;;;;;;;4.27;2.90;;;9.40;70.30;;;;;;5032873;28;20474;-72
2021/04/24 02:50:37;;;;;;;5.17;3.40;;;9.30;70.40;;;;;;5049870;28;20447;-71
2021/04/24 02:53:03;;;;;;;4.63;3.07;;;9.30;70.70;;;;;;5050447;28;20520;-71
2021/04/24 02:55:30;;;;;;;5.67;2.97;;;9.40;71.00;;;;;;5013278;28;20471;-71
2021/04/24 02:57:55;;;;;;;7.30;3.20;;;9.40;71.90;;;;;;5018890;28;20459;-71
2021/04/24 03:00:21;;;;;;;4.70;3.23;;;9.30;71.50;;;;;;5048983;28;20513;-71
2021/04/24 03:03:01;;;;;;;6.53;3.00;;;9.30;71.40;;;;;;5049658;28;20593;-71
2021/04/24 03:05:27;;;;;;;4.17;3.27;;;9.30;71.50;;;;;;5035324;28;20608;-72
2021/04/24 03:07:53;;;;;;;7.23;3.87;;;9.30;71.50;;;;;;5049329;28;21037;-71
2021/04/24 03:10:19;;;;;;;3.07;2.57;;;9.30;71.80;;;;;;5013208;28;20232;-71
2021/04/24 03:12:44;;;;;;;2.70;2.30;;;9.30;71.80;;;;;;5031861;28;20216;-70
2021/04/24 03:15:10;;;;;;;3.43;3.10;;;9.30;71.90;;;;;;5013082;28;20629;-71
2021/04/24 03:17:36;;;;;;;7.87;3.20;;;9.30;72.60;;;;;;5031483;28;20228;-72
2021/04/24 03:20:05;;;;;;;3.63;2.87;;;9.20;72.00;;;;;;5033668;28;20234;-70
2021/04/24 03:22:30;;;;;;;3.60;3.00;;;9.20;71.90;;;;;;5046966;28;20439;-71
2021/04/24 03:24:56;;;;;;;6.23;3.20;;;9.20;72.00;;;;;;5049759;28;20459;-71
2021/04/24 03:27:22;;;;;;;3.67;2.77;;;9.20;72.20;;;;;;5040742;28;20698;-71
2021/04/24 03:29:47;;;;;;;3.50;2.87;;;9.20;72.20;;;;;;5024082;28;20702;-71
2021/04/24 03:32:13;;;;;;;3.33;2.57;;;9.20;72.20;;;;;;5032512;28;20261;-71
2021/04/24 03:34:39;;;;;;;9.30;3.13;;;9.10;72.00;;;;;;5027798;28;20217;-71
2021/04/24 03:37:04;;;;;;;3.97;2.90;;;9.10;72.10;;;;;;5049895;28;20738;-71
2021/04/24 03:39:30;;;;;;;5.90;3.37;;;9.00;72.20;;;;;;5012322;28;20712;-70
2021/04/24 03:41:55;;;;;;;3.10;2.80;;;9.00;72.30;;;;;;5029830;28;20567;-71
2021/04/24 03:44:21;;;;;;;4.87;3.67;;;9.00;72.10;;;;;;4995839;28;20319;-71
2021/04/24 03:46:47;;;;;;;3.03;1.90;;;9.00;72.30;;;;;;5016347;28;20220;-71
2021/04/24 03:49:14;;;;;;;3.20;2.63;;;9.00;72.40;;;;;;5007615;28;20236;-71
2021/04/24 03:51:40;;;;;;;4.93;2.90;;;8.90;72.90;;;;;;5047244;28;20208;-71
2021/04/24 03:54:07;;;;;;;4.53;3.07;;;8.90;72.90;;;;;;5013263;28;21125;-71
2021/04/24 03:56:34;;;;;;;4.07;2.80;;;8.90;72.90;;;;;;5029311;28;20275;-71
2021/04/24 03:59:00;;;;;;;3.20;2.90;;;8.80;73.30;;;;;;5026218;28;20457;-72
2021/04/24 04:01:25;;;;;;;4.43;3.00;;;8.80;72.70;;;;;;5045231;28;20455;-70
2021/04/24 04:03:51;;;;;;;4.30;2.83;;;8.80;73.00;;;;;;5014378;28;20462;-71
2021/04/24 04:06:17;;;;;;;4.60;2.63;;;8.80;72.90;;;;;;5031264;28;20251;-71
2021/04/24 04:08:43;;;;;;;4.80;3.63;;;8.80;73.00;;;;;;5048552;28;20315;-72
2021/04/24 04:11:08;;;;;;;5.80;3.60;;;8.70;72.90;;;;;;5049112;28;20895;-71
2021/04/24 04:13:34;;;;;;;3.50;2.90;;;8.70;73.00;;;;;;5023223;28;20226;-71
2021/04/24 04:16:00;;;;;;;4.07;3.03;;;8.70;73.00;;;;;;5011253;28;20228;-70
2021/04/24 04:18:25;;;;;;;5.37;3.10;;;8.70;73.20;;;;;;5020188;28;20216;-71
2021/04/24 04:20:54;;;;;;;3.00;2.60;;;8.70;73.20;;;;;;5032060;28;20602;-71
2021/04/24 04:23:21;;;;;;;4.13;3.00;;;8.70;73.10;;;;;;5046115;28;20224;-71
2021/04/24 04:25:47;;;;;;;3.63;3.00;;;8.70;73.20;;;;;;5048006;28;20462;-70
2021/04/24 04:28:14;;;;;;;5.03;3.10;;;8.70;73.10;;;;;;5014451;28;21057;-71
2021/04/24 04:30:40;;;;;;;7.00;2.90;;;8.60;73.10;;;;;;5013659;28;20588;-71
2021/04/24 04:33:07;;;;;;;3.57;2.87;;;8.60;73.20;;;;;;5032511;28;20545;-71
2021/04/24 04:35:35;;;;;;;4.27;3.27;;;8.60;73.30;;;;;;5029527;28;20480;-71
2021/04/24 04:38:01;;;;;;;5.83;3.20;;;8.50;73.40;;;;;;5033366;28;20884;-71
2021/04/24 04:40:27;;;;;;;4.63;2.90;;;8.50;73.40;;;;;;5023339;28;20941;-71
2021/04/24 04:42:52;;;;;;;5.77;3.50;;;8.50;73.50;;;;;;5049179;28;20558;-71
2021/04/24 04:45:19;;;;;;;6.77;2.97;;;8.60;73.60;;;;;;5047862;28;20458;-71
2021/04/24 04:47:45;;;;;;;6.73;3.23;;;8.50;73.60;;;;;;5032123;28;20231;-71
2021/04/24 04:50:15;;;;;;;4.10;3.20;;;8.50;73.60;;;;;;5031001;28;20458;-71
2021/04/24 04:52:41;;;;;;;4.23;3.17;;;8.50;73.90;;;;;;5056164;28;20453;-71
2021/04/24 04:55:07;;;;;;;4.90;3.20;;;8.40;74.20;;;;;;5031536;28;20600;-71
2021/04/24 04:57:33;;;;;;;7.27;4.27;;;8.40;75.80;;;;;;5012254;28;20977;-72
2021/04/24 04:59:59;;;;;;;4.17;2.87;;;8.30;75.20;;;;;;5032129;28;20454;-70
2021/04/24 05:02:25;;;;;;;5.10;3.53;;;8.30;75.20;;;;;;5047629;28;20306;-71
2021/04/24 05:04:51;;;;;;;5.03;2.83;;;8.30;74.90;;;;;;5015927;28;20761;-72
2021/04/24 05:07:16;;;;;;;4.37;3.07;;;8.40;74.80;;;;;;5018938;28;20711;-70
2021/04/24 05:09:42;;;;;;;5.23;3.50;;;8.40;74.70;;;;;;5047981;28;20216;-71
2021/04/24 05:12:08;;;;;;;5.33;3.87;;;8.40;74.60;;;;;;5010499;28;20267;-71
2021/04/24 05:14:34;;;;;;;4.80;3.17;;;8.40;74.70;;;;;;5031342;28;20222;-70
2021/04/24 05:17:01;;;;;;;4.63;3.20;;;8.40;74.60;;;;;;5047324;28;20492;-71
2021/04/24 05:19:26;;;;;;;4.90;3.33;;;8.40;74.60;;;;;;5047359;28;20958;-70
2021/04/24 05:21:52;;;;;;;5.73;3.07;;;8.40;74.80;;;;;;5028334;28;20462;-71
2021/04/24 05:24:18;;;;;;;8.20;3.37;;;8.40;74.90;;;;;;5032105;28;20234;-71
2021/04/24 05:26:44;;;;;;;7.30;3.30;;;8.40;74.90;;;;;;5025943;28;20522;-70
2021/04/24 05:29:10;;;;;;;6.87;3.40;;;8.40;74.90;;;;;;5035032;28;20659;-71
2021/04/24 05:31:36;;;;;;;4.83;3.23;;;8.40;75.20;;;;;;5051736;28;20220;-70
2021/04/24 05:34:02;;;;;;;4.20;3.50;;;8.40;75.00;;;;;;5034833;28;20450;-72
2021/04/24 05:36:28;;;;;;;7.70;3.90;;;8.40;75.10;;;;;;5034929;28;20683;-71
2021/04/24 05:38:55;;;;;;;5.30;3.40;;;8.40;74.90;;;;;;5018679;28;20469;-72
2021/04/24 05:41:22;;;;;;;6.07;3.60;;;8.40;75.00;;;;;;5052848;28;20272;-71
2021/04/24 05:43:53;;;;;;;6.73;3.50;;;8.40;76.30;;;;;;5051239;28;20969;-71
2021/04/24 05:46:23;;;;;;;3.80;3.37;;;8.40;75.70;;;;;;5051460;28;20458;-72
2021/04/24 05:48:49;;;;;;;4.10;2.53;;;8.50;75.80;;;;;;5040913;28;20466;-71
2021/04/24 05:51:15;;;;;;;5.77;3.70;;;8.50;76.10;;;;;;5051263;28;20486;-70
2021/04/24 05:53:45;;;;;;;9.23;5.67;;;8.50;76.70;;;;;;5060225;28;20469;-71
2021/04/24 05:56:10;;;;;;;7.43;5.17;;;8.50;78.20;;;;;;5015193;28;20978;-72
2021/04/24 05:58:37;;;;;;;10.67;5.33;;;8.60;78.00;;;;;;5032369;28;20458;-72
2021/04/24 06:01:04;;;;;;;6.03;4.80;;;8.60;77.60;;;;;;5028314;28;20221;-72
2021/04/24 06:03:29;;;;;;;7.67;4.90;;;8.60;77.90;;;;;;5048566;28;20459;-71
2021/04/24 06:05:55;;;;;;;7.60;4.60;;;8.70;78.20;;;;;;5034290;28;20466;-71
2021/04/24 06:08:21;;;;;;;6.40;5.50;;;8.70;78.60;;;;;;5014201;28;20751;-71
2021/04/24 06:10:47;;;;;;;6.50;4.70;;;8.70;79.00;;;;;;5034199;28;20718;-71
2021/04/24 06:13:13;;;;;;;8.73;3.90;;;8.80;79.20;;;;;;5050395;28;20482;-71
2021/04/24 06:15:39;;;;;;;5.83;4.20;;;8.80;79.30;;;;;;5014930;28;20224;-71
2021/04/24 06:18:05;;;;;;;7.57;4.80;;;8.80;79.80;;;;;;5051093;28;20224;-71
2021/04/24 06:20:31;;;;;;;7.40;4.87;;;8.90;79.90;;;;;;5050536;28;20458;-71
2021/04/24 06:22:57;;;;;;;8.40;5.00;;;8.90;79.90;;;;;;5049233;28;20500;-71
2021/04/24 06:25:22;;;;;;;6.70;4.53;;;8.90;80.20;;;;;;5017405;28;20482;-70
2021/04/24 06:27:49;;;;;;;9.10;3.90;;;9.00;80.30;;;;;;5052417;28;20704;-71
2021/04/24 06:30:17;;;;;;;5.73;4.40;;;9.00;81.70;;;;;;5050443;28;20227;-71
2021/04/24 06:32:45;;;;;;;4.73;3.93;;;9.10;81.80;;;;;;5049937;28;20461;-71
2021/04/24 06:35:12;;;;;;;5.20;3.67;;;9.20;82.00;;;;;;5050007;28;20474;-71
2021/04/24 06:37:38;;;;;;;6.97;4.37;;;9.20;81.80;;;;;;5028911;28;20459;-71
2021/04/24 06:40:05;;;;;;;8.77;4.60;;;9.20;82.20;;;;;;5041852;28;20461;-72
2021/04/24 06:42:31;;;;;;;7.20;4.80;;;9.20;81.90;;;;;;5050701;28;20901;-69
2021/04/24 06:44:57;;;;;;;6.27;3.90;;;9.30;82.80;;;;;;5034393;28;20458;-70
2021/04/24 06:47:22;;;;;;;7.83;4.97;;;9.40;84.40;;;;;;5032708;28;20748;-71
2021/04/24 06:49:48;;;;;;;4.63;3.40;;;9.40;84.30;;;;;;5033506;28;20639;-70
2021/04/24 06:52:14;;;;;;;8.83;4.90;;;9.50;85.50;;;;;;5016063;28;20219;-71
2021/04/24 06:54:39;;;;;;;8.80;4.37;;;9.60;86.00;;;;;;5033563;28;20215;-71
2021/04/24 06:57:05;;;;;;;10.47;3.93;;;9.70;85.70;;;;;;5033617;28;20255;-71
2021/04/24 06:59:31;;;;;;;6.67;4.40;;;9.80;86.20;;;;;;5016779;28;20231;-71
2021/04/24 07:01:57;;;;;;;7.37;4.90;;;9.90;86.60;;;;;;5032880;28;20458;-72
2021/04/24 07:04:23;;;;;;;7.90;4.43;;;9.90;85.50;;;;;;5033235;28;20461;-71
2021/04/24 07:06:48;;;;;;;6.20;4.33;;;10.00;85.10;;;;;;5033553;28;20219;-72
2021/04/24 07:09:14;;;;;;;6.07;4.50;;;10.10;84.70;;;;;;5015916;28;20683;-71
2021/04/24 07:11:40;;;;;;;7.70;4.90;;;10.10;84.90;;;;;;5032597;28;20675;-71
2021/04/24 07:14:05;;;;;;;5.63;4.50;;;10.30;85.40;;;;;;5051697;28;20287;-72
2021/04/24 07:16:31;;;;;;;6.80;5.03;;;10.30;85.30;;;;;;5014154;28;20213;-71
2021/04/24 07:18:57;;;;;;;7.97;5.00;;;10.40;85.40;;;;;;5049642;28;20749;-71
2021/04/24 07:21:22;;;;;;;8.23;4.40;;;10.40;85.10;;;;;;5032863;28;20216;-71
2021/04/24 07:23:48;;;;;;;7.57;4.30;;;10.50;85.00;;;;;;5049922;28;20243;-71
2021/04/24 07:26:14;;;;;;;8.40;5.00;;;10.50;84.90;;;;;;5016214;28;20311;-72
2021/04/24 07:28:40;;;;;;;7.90;5.10;;;10.60;85.00;;;;;;5032887;28;20238;-72
2021/04/24 07:31:08;;;;;;;8.63;5.10;;;10.60;85.80;;;;;;5032729;28;20455;-72
2021/04/24 07:33:34;;;;;;;6.43;4.30;;;10.80;86.00;;;;;;5031991;28;20212;-73
2021/04/24 07:35:59;;;;;;;8.53;4.47;;;10.90;86.00;;;;;;5049706;28;20970;-73
2021/04/24 07:38:25;;;;;;;7.80;5.00;;;11.00;86.00;;;;;;5011839;28;20223;-73
2021/04/24 07:40:53;;;;;;;7.77;4.60;;;11.20;86.30;;;;;;5064770;28;20218;-73
2021/04/24 07:43:19;;;;;;;5.70;4.30;;;11.30;85.80;;;;;;5016322;28;20219;-73
2021/04/24 07:45:45;;;;;;;6.67;3.93;;;11.30;85.90;;;;;;5032680;28;20512;-70
2021/04/24 07:48:11;;;;;;;7.70;4.07;;;11.40;86.50;;;;;;5026771;28;20282;-73
2021/04/24 07:50:37;;;;;;;7.80;4.70;;;11.50;86.30;;;;;;5030524;28;20446;-73
2021/04/24 07:53:03;;;;;;;9.30;5.00;;;11.60;86.40;;;;;;5049103;28;20231;-70
2021/04/24 07:55:30;;;;;;;9.33;3.83;;;11.70;87.00;;;;;;5032579;28;20454;-70
2021/04/24 07:57:56;;;;;;;8.60;4.93;;;11.80;86.80;;;;;;5049465;28;20978;-70
2021/04/24 08:00:22;;;;;;;6.70;5.00;;;12.00;85.60;;;;;;5047577;28;20450;-70
2021/04/24 08:02:48;;;;;;;5.80;4.80;;;12.10;85.60;;;;;;5015835;28;20234;-70
2021/04/24 08:05:17;;;;;;;7.30;5.03;;;12.10;85.70;;;;;;5050483;28;20492;-71
2021/04/24 08:07:47;;;;;;;6.90;5.10;;;12.30;85.80;;;;;;5049173;28;20520;-70
2021/04/24 08:10:13;;;;;;;6.13;4.20;;;12.30;85.70;;;;;;5031002;28;20458;-70
2021/04/24 08:12:40;;;;;;;6.60;4.63;;;12.50;85.50;;;;;;5011572;28;20470;-71
2021/04/24 08:15:07;;;;;;;5.47;4.20;;;12.70;84.90;;;;;;5028221;28;20892;-71
2021/04/24 08:17:33;;;;;;;8.50;5.17;;;12.80;84.80;;;;;;5020784;28;20458;-70
2021/04/24 08:19:59;;;;;;;7.20;4.57;;;12.80;84.40;;;;;;5022426;28;20524;-68
2021/04/24 08:22:25;;;;;;;6.87;4.40;;;12.90;84.10;;;;;;5026269;28;20216;-70
2021/04/24 08:24:51;;;;;;;7.40;4.60;;;13.00;83.70;;;;;;5042895;28;20451;-70
2021/04/24 08:27:17;;;;;;;6.20;4.67;;;13.10;83.50;;;;;;5009941;28;21001;-70
2021/04/24 08:29:43;;;;;;;6.97;4.77;;;13.10;83.10;;;;;;5038370;28;20213;-70
2021/04/24 08:32:09;;;;;;;6.40;4.60;;;13.20;83.10;;;;;;5010608;28;20212;-70
2021/04/24 08:34:35;;;;;;;6.13;4.70;;;13.30;81.90;;;;;;5026718;28;20215;-71
2021/04/24 08:37:01;;;;;;;7.00;4.70;;;13.40;81.60;;;;;;5026471;28;20466;-70
2021/04/24 08:39:27;;;;;;;8.47;5.00;;;13.40;81.30;;;;;;5011088;28;20231;-68
2021/04/24 08:41:53;;;;;;;5.63;4.03;;;13.50;80.90;;;;;;5031474;28;20473;-71
2021/04/24 08:44:18;;;;;;;7.07;4.37;;;13.50;80.50;;;;;;5035499;28;20216;-70
2021/04/24 08:46:52;;;;;;;5.87;4.60;;;13.60;80.50;;;;;;5015423;28;20219;-70
2021/04/24 08:49:20;;;;;;;6.90;5.20;;;13.70;80.50;;;;;;5047222;28;20227;-70
2021/04/24 08:51:46;;;;;;;8.17;5.83;;;13.70;77.80;;;;;;5026285;28;20830;-71
2021/04/24 08:54:12;;;;;;;6.90;5.10;;;13.50;79.50;;;;;;5036764;28;20966;-71
2021/04/24 08:56:37;;;;;;;9.40;5.70;;;13.70;80.50;;;;;;5030653;28;20447;-71
2021/04/24 08:59:04;;;;;;;5.67;4.77;;;13.80;79.90;;;;;;5050096;28;20564;-70
2021/04/24 09:01:29;;;;;;;10.03;4.80;;;14.00;79.60;;;;;;5051173;28;20327;-71
2021/04/24 09:03:55;;;;;;;10.50;5.10;;;14.10;79.50;;;;;;5035301;28;20529;-70
2021/04/24 09:06:23;;;;;;;13.20;4.83;;;14.30;79.90;;;;;;5035971;28;20219;-69
2021/04/24 09:08:57;;;;;;;6.10;5.00;;;14.50;80.00;;;;;;5057036;28;20219;-70
2021/04/24 09:11:24;;;;;;;8.80;5.00;;;14.60;79.40;;;;;;5051662;28;21023;-70
2021/04/24 09:14:05;;;;;;;7.80;4.90;;;14.70;78.90;;;;;;5027021;28;20478;-71
2021/04/24 09:16:31;;;;;;;6.90;4.70;;;14.70;77.80;;;;;;5047734;28;20480;-70
2021/04/24 09:18:58;;;;;;;8.30;5.07;;;14.80;78.30;;;;;;5031947;28;20446;-70
2021/04/24 09:21:27;;;;;;;9.67;4.90;;;14.90;77.50;;;;;;5034328;28;20976;-70
2021/04/24 09:23:54;;;;;;;6.57;4.63;;;14.90;77.20;;;;;;5043853;28;20457;-70
2021/04/24 09:26:25;;;;;;;6.73;4.57;;;15.00;78.00;;;;;;5048011;28;20501;-70
2021/04/24 09:29:04;;;;;;;5.50;3.97;;;15.20;78.30;;;;;;5033966;28;20541;-69
2021/04/24 09:31:31;;;;;;;6.83;4.33;;;15.30;77.60;;;;;;5032301;28;20526;-70
2021/04/24 09:33:59;;;;;;;11.63;5.13;;;15.40;77.70;;;;;;5050821;28;20474;-70
2021/04/24 09:36:37;;;;;;;9.07;4.73;;;15.50;76.90;;;;;;5043660;28;20481;-70
2021/04/24 09:39:09;;;;;;;9.50;5.30;;;15.60;76.80;;;;;;5040787;28;21044;-70
2021/04/24 09:41:41;;;;;;;12.10;6.20;;;15.80;76.00;;;;;;5042010;28;20819;-70
2021/04/24 09:44:09;;;;;;;9.90;5.20;;;15.90;75.60;;;;;;5006998;28;20476;-70
2021/04/24 09:46:50;;;;;;;6.20;4.67;;;15.90;75.30;;;;;;5048217;28;20835;-70
2021/04/24 09:49:29;;;;;;;9.33;5.03;;;16.00;75.80;;;;;;5012866;28;20503;-70
2021/04/24 09:52:01;;;;;;;5.60;4.37;;;16.00;75.50;;;;;;5032338;28;20828;-71
2021/04/24 09:54:37;;;;;;;7.37;5.07;;;16.00;76.00;;;;;;5048613;28;20583;-70
2021/04/24 09:57:20;;;;;;;7.27;4.83;;;16.10;75.60;;;;;;5032506;28;20926;-71
2021/04/24 09:59:59;;;;;;;7.17;5.00;;;16.00;75.80;;;;;;5044349;28;20877;-69
2021/04/24 10:02:39;;;;;;;11.13;5.10;;;16.10;75.90;;;;;;5047509;28;20462;-70
2021/04/24 10:05:16;;;;;;;7.80;4.80;;;16.30;75.80;;;;;;5049406;28;21015;-69
2021/04/24 10:07:48;;;;;;;8.97;5.27;;;16.40;76.20;;;;;;5048705;28;20454;-71
2021/04/24 10:10:34;;;;;;;9.00;5.90;;;16.50;76.30;;;;;;5049227;28;20497;-70
2021/04/24 10:13:08;;;;;;;10.93;5.20;;;16.70;75.40;;;;;;5033368;28;20470;-70
2021/04/24 10:15:41;;;;;;;7.00;5.83;;;16.90;74.80;;;;;;5042478;28;20489;-70
2021/04/24 10:18:12;;;;;;;12.43;6.30;;;16.80;74.20;;;;;;5034416;28;20450;-70
2021/04/24 10:20:40;;;;;;;6.90;5.37;;;16.60;73.10;;;;;;5033059;28;20454;-70
2021/04/24 10:23:09;;;;;;;7.00;5.00;;;16.60;74.70;;;;;;5016196;28;20453;-70
2021/04/24 10:25:35;;;;;;;6.90;5.20;;;16.80;74.90;;;;;;5038111;28;20455;-69
2021/04/24 10:28:01;;;;;;;8.07;6.00;;;17.00;74.90;;;;;;5014892;28;20459;-69
2021/04/24 10:30:27;;;;;;;6.90;4.37;;;17.00;73.90;;;;;;5012519;28;20897;-70
2021/04/24 10:32:54;;;;;;;7.30;5.57;;;17.10;74.20;;;;;;5025833;28;20457;-70
2021/04/24 10:35:21;;;;;;;6.53;4.70;;;17.30;73.90;;;;;;5027089;28;20498;-69
2021/04/24 10:37:48;;;;;;;7.00;4.67;;;17.50;74.50;;;;;;5048314;28;21224;-71
2021/04/24 10:40:15;;;;;;;9.53;6.23;;;17.60;74.10;;;;;;5051022;28;20459;-70
2021/04/24 10:42:44;;;;;;;6.53;4.57;;;17.60;72.20;;;;;;5050005;28;20478;-70
2021/04/24 10:45:10;;;;;;;7.73;5.53;;;17.70;72.40;;;;;;5010453;28;20472;-70
2021/04/24 10:47:41;;;;;;;8.40;5.60;;;17.70;72.10;;;;;;5025949;28;20462;-67
2021/04/24 10:50:18;;;;;;;11.30;5.70;;;17.90;72.20;;;;;;5045334;28;20498;-70
2021/04/24 10:52:45;;;;;;;10.40;5.40;;;18.00;72.20;;;;;;5040512;28;20463;-70
2021/04/24 10:55:16;;;;;;;6.87;4.97;;;18.10;70.40;;;;;;5033154;28;20478;-71
2021/04/24 10:57:58;;;;;;;7.23;5.53;;;18.30;69.60;;;;;;5055764;28;20478;-70
2021/04/24 11:00:27;;;;;;;7.67;5.10;;;18.50;69.10;;;;;;5026534;28;20462;-68
2021/04/24 11:02:59;;;;;;;9.27;5.47;;;18.70;68.30;;;;;;5045582;28;20820;-71
2021/04/24 11:05:41;;;;;;;8.33;5.40;;;18.70;69.50;;;;;;5048908;28;20513;-71
2021/04/24 11:08:19;;;;;;;8.47;5.17;;;18.70;69.00;;;;;;5028442;28;21317;-70
2021/04/24 11:11:05;;;;;;;5.63;4.37;;;18.70;69.70;;;;;;5047864;28;20524;-69
2021/04/24 11:13:45;;;;;;;7.77;5.50;;;18.60;69.60;;;;;;5045386;28;20777;-70
2021/04/24 11:16:13;;;;;;;7.33;5.27;;;18.70;69.50;;;;;;5031598;28;20476;-71
2021/04/24 11:18:42;;;;;;;6.50;5.47;;;18.80;68.40;;;;;;5048911;28;20842;-70
2021/04/24 11:21:27;;;;;;;9.13;5.77;;;18.90;69.70;;;;;;5049276;28;20482;-70
2021/04/24 11:23:56;;;;;;;7.37;5.27;;;19.10;68.20;;;;;;5032019;28;20472;-70
2021/04/24 11:26:31;;;;;;;8.57;5.57;;;19.10;66.10;;;;;;5027534;28;20458;-70
2021/04/24 11:29:00;;;;;;;8.50;5.70;;;19.10;67.80;;;;;;5028914;28;20470;-70
2021/04/24 11:31:49;;;;;;;9.20;5.93;;;18.60;65.70;;;;;;5030521;28;21005;-69
2021/04/24 11:34:34;;;;;;;6.43;5.43;;;18.50;66.60;;;;;;5042874;28;20469;-70
2021/04/24 11:37:20;;;;;;;9.33;6.00;;;18.60;67.60;;;;;;5042473;28;20462;-71
2021/04/24 11:40:32;;;;;;;6.77;4.87;;;18.60;66.20;;;;;;5048031;28;20458;-70
2021/04/24 11:43:08;;;;;;;9.30;6.00;;;18.80;67.80;;;;;;5056880;27;20601;-72
2021/04/24 11:45:53;;;;;;;6.63;5.47;;;18.70;65.10;;;;;;5041772;28;20482;-72
2021/04/24 11:48:47;;;;;;;9.37;6.23;;;18.70;67.00;;;;;;5022232;28;20521;-70
2021/04/24 11:51:29;;;;;;;8.17;6.13;;;18.80;66.90;;;;;;5041104;28;20455;-69
2021/04/24 11:53:56;;;;;;;5.80;4.50;;;18.80;65.30;;;;;;5008719;28;20516;-69
2021/04/24 11:56:21;;;;;;;6.60;5.30;;;18.90;66.70;;;;;;5021941;28;20481;-69
2021/04/24 11:58:49;;;;;;;7.10;5.40;;;18.90;66.50;;;;;;5039792;28;20545;-69
2021/04/24 12:01:22;;;;;;;9.80;5.50;;;19.00;65.80;;;;;;5031154;28;20219;-69
2021/04/24 12:03:48;;;;;;;6.83;4.90;;;19.20;66.90;;;;;;5036632;28;20456;-71
2021/04/24 12:06:31;;;;;;;7.57;5.93;;;19.10;66.40;;;;;;5021652;28;20491;-72
2021/04/24 12:09:04;;;;;;;7.27;5.23;;;18.90;65.40;;;;;;5022403;28;21001;-72
2021/04/24 12:11:30;;;;;;;5.80;5.20;;;18.80;66.60;;;;;;5044630;28;20474;-72
2021/04/24 12:13:57;;;;;;;8.30;4.77;;;19.00;68.10;;;;;;5009451;28;20470;-71
2021/04/24 12:16:44;;;;;;;8.73;5.40;;;19.20;66.20;;;;;;5019242;28;20277;-71
2021/04/24 12:19:21;;;;;;;9.37;4.97;;;19.40;67.90;;;;;;5016437;28;20455;-71
2021/04/24 12:22:19;;;;;;;9.63;6.30;;;19.50;66.40;;;;;;5023557;28;20544;-71
2021/04/24 12:24:59;;;;;;;9.17;5.60;;;19.60;65.70;;;;;;5019843;28;20451;-72
2021/04/24 12:27:38;;;;;;;8.57;6.20;;;19.70;65.60;;;;;;5053144;28;20471;-71
2021/04/24 12:30:13;;;;;;;10.60;7.27;;;19.50;63.80;;;;;;5038850;28;20509;-72
2021/04/24 12:32:44;;;;;;;6.63;5.77;;;19.50;64.30;;;;;;5006569;28;20478;-71
2021/04/24 12:35:25;;;;;;;7.67;5.97;;;19.70;64.50;;;;;;5005479;28;20463;-72
2021/04/24 12:37:59;;;;;;;11.97;5.23;;;19.90;66.10;;;;;;5030591;28;20818;-71
2021/04/24 12:40:26;;;;;;;8.53;6.47;;;20.20;66.30;;;;;;5012834;28;20459;-70
2021/04/24 12:42:52;;;;;;;10.90;7.53;;;20.30;64.90;;;;;;5019153;28;20842;-72
2021/04/24 12:45:22;;;;;;;8.27;6.20;;;20.00;63.20;;;;;;5050447;28;20465;-72
2021/04/24 12:47:49;;;;;;;11.67;7.00;;;19.90;64.60;;;;;;5032926;28;20455;-72
2021/04/24 12:50:39;;;;;;;10.97;7.40;;;19.90;64.50;;;;;;5010676;28;20446;-71
2021/04/24 12:53:06;;;;;;;11.30;5.87;;;19.80;63.80;;;;;;5008907;28;20455;-72
2021/04/24 12:55:43;;;;;;;10.10;6.10;;;19.90;63.60;;;;;;5001457;28;20466;-71
2021/04/24 12:58:13;;;;;;;12.43;6.20;;;19.80;63.80;;;;;;5008550;28;20494;-72